createdAt,value
2023-02-08T00:01:00.268Z,25.17
2023-02-08T00:03:29.272Z,28.85
2023-02-08T00:05:56.693Z,23.65
2023-02-08T00:08:23.995Z,28.58
2023-02-08T00:10:51.165Z,29.83
2023-02-08T00:13:19.004Z,28.40
2023-02-08T00:15:47.488Z,28.23
2023-02-08T00:18:15.060Z,28.08
2023-02-08T00:20:43.878Z,29.33
2023-02-08T00:23:12.281Z,26.90
2023-02-08T00:25:41.293Z,23.75
2023-02-08T00:28:12.542Z,24.02
2023-02-08T00:30:41.732Z,21.85
2023-02-08T00:33:09.659Z,21.40
2023-02-08T00:35:37.321Z,17.60
2023-02-08T00:38:04.668Z,20.75
2023-02-08T00:40:31.771Z,18.35
2023-02-08T00:42:58.897Z,17.95
2023-02-08T00:45:25.962Z,19.50
2023-02-08T00:47:53.188Z,21.83
2023-02-08T00:50:20.508Z,19.35
2023-02-08T00:52:47.690Z,17.13
2023-02-08T00:55:14.711Z,17.63
2023-02-08T00:57:41.873Z,17.50
2023-02-08T01:00:09.690Z,14.93
2023-02-08T01:02:39.183Z,13.20
2023-02-08T01:05:07.015Z,14.48
2023-02-08T01:07:37.346Z,18.85
2023-02-08T01:10:06.919Z,15.68
2023-02-08T01:12:34.419Z,17.20
2023-02-08T01:15:01.760Z,15.98
2023-02-08T01:17:28.892Z,16.10
2023-02-08T01:19:56.023Z,16.73
2023-02-08T01:22:23.125Z,14.65
2023-02-08T01:24:50.430Z,16.48
2023-02-08T01:27:17.940Z,13.95
2023-02-08T01:29:45.236Z,14.77
2023-02-08T01:32:12.405Z,15.82
2023-02-08T01:34:39.601Z,19.30
2023-02-08T01:37:06.751Z,14.45
2023-02-08T01:39:34.101Z,14.70
2023-02-08T01:42:01.250Z,14.25
2023-02-08T01:45:21.027Z,15.10
2023-02-08T01:47:53.652Z,11.90
2023-02-08T01:50:23.635Z,12.70
2023-02-08T01:52:51.857Z,15.40
2023-02-08T01:55:26.959Z,12.55
2023-02-08T01:57:57.690Z,11.60
2023-02-08T02:00:25.438Z,13.85
2023-02-08T02:02:55.388Z,13.68
2023-02-08T02:05:26.337Z,11.70
2023-02-08T02:07:55.598Z,11.27
2023-02-08T02:10:32.543Z,13.85
2023-02-08T02:13:18.546Z,13.20
2023-02-08T02:15:46.200Z,13.48
2023-02-08T02:18:18.588Z,11.30
2023-02-08T02:21:16.756Z,15.55
2023-02-08T02:24:12.061Z,12.82
2023-02-08T02:27:17.032Z,13.52
2023-02-08T02:30:05.202Z,13.07
2023-02-08T02:32:41.343Z,11.52
2023-02-08T02:35:36.010Z,13.93
2023-02-08T02:38:16.738Z,14.05
2023-02-08T02:41:06.270Z,15.05
2023-02-08T02:43:46.440Z,32.35
2023-02-08T02:46:24.364Z,19.42
2023-02-08T02:49:10.048Z,13.95
2023-02-08T02:51:46.934Z,11.52
2023-02-08T02:54:19.044Z,16.55
2023-02-08T02:56:53.844Z,11.77
2023-02-08T02:59:22.789Z,14.25
2023-02-08T03:01:50.125Z,13.52
2023-02-08T03:04:39.872Z,12.95
2023-02-08T03:07:51.751Z,16.83
2023-02-08T03:10:32.529Z,15.25
2023-02-08T03:13:51.637Z,13.68
2023-02-08T03:16:24.400Z,12.50
2023-02-08T03:19:33.837Z,10.82
2023-02-08T03:22:15.035Z,12.65
2023-02-08T03:24:59.694Z,15.00
2023-02-08T03:27:56.072Z,13.38
2023-02-08T03:30:45.944Z,13.40
2023-02-08T03:33:20.138Z,12.65
2023-02-08T03:36:06.104Z,14.68
2023-02-08T03:38:43.767Z,15.70
2023-02-08T03:41:22.984Z,14.25
2023-02-08T03:44:02.599Z,12.80
2023-02-08T03:46:36.600Z,13.27
2023-02-08T03:49:14.212Z,14.32
2023-02-08T03:51:43.294Z,13.65
2023-02-08T03:54:18.312Z,14.55
2023-02-08T03:57:11.071Z,12.70
2023-02-08T03:59:42.094Z,14.45
2023-02-08T04:02:18.578Z,14.90
2023-02-08T04:04:48.787Z,16.60
2023-02-08T04:07:18.154Z,15.75
2023-02-08T04:09:45.710Z,15.52
2023-02-08T04:12:13.164Z,13.38
2023-02-08T04:14:40.276Z,12.73
2023-02-08T04:17:07.478Z,14.98
2023-02-08T04:19:34.765Z,16.00
2023-02-08T04:22:02.114Z,13.45
2023-02-08T04:24:29.294Z,13.02
2023-02-08T04:26:56.675Z,13.80
2023-02-08T04:29:24.203Z,15.15
2023-02-08T04:31:51.475Z,12.70
2023-02-08T04:34:18.732Z,14.25
2023-02-08T04:36:45.896Z,15.73
2023-02-08T04:39:13.193Z,16.55
2023-02-08T04:41:40.336Z,14.65
2023-02-08T04:44:07.630Z,12.80
2023-02-08T04:46:34.935Z,14.98
2023-02-08T04:49:02.129Z,14.07
2023-02-08T04:51:29.549Z,16.65
2023-02-08T04:53:56.939Z,16.48
2023-02-08T04:56:24.403Z,12.02
2023-02-08T04:58:51.920Z,16.13
2023-02-08T05:01:19.488Z,15.25
2023-02-08T05:03:47.570Z,15.35
2023-02-08T05:06:14.860Z,15.30
2023-02-08T05:08:42.334Z,17.25
2023-02-08T05:11:09.867Z,15.02
2023-02-08T05:13:37.306Z,15.55
2023-02-08T05:16:04.878Z,15.90
2023-02-08T05:18:32.642Z,15.98
2023-02-08T05:21:01.387Z,14.93
2023-02-08T05:23:28.808Z,16.20
2023-02-08T05:25:56.148Z,17.55
2023-02-08T05:28:24.057Z,18.90
2023-02-08T05:30:51.909Z,17.63
2023-02-08T05:33:19.642Z,15.30
2023-02-08T05:35:47.076Z,15.32
2023-02-08T05:38:14.479Z,16.40
2023-02-08T05:40:42.145Z,16.60
2023-02-08T05:43:09.763Z,18.33
2023-02-08T05:45:37.293Z,15.20
2023-02-08T05:48:04.622Z,14.98
2023-02-08T05:50:32.226Z,16.83
2023-02-08T05:52:59.715Z,17.70
2023-02-08T05:55:28.754Z,16.17
2023-02-08T05:57:56.366Z,18.50
2023-02-08T06:00:24.031Z,18.00
2023-02-08T06:02:51.509Z,19.08
2023-02-08T06:05:18.947Z,17.23
2023-02-08T06:07:46.546Z,17.73
2023-02-08T06:10:13.978Z,18.80
2023-02-08T06:12:41.383Z,19.83
2023-02-08T06:15:09.149Z,15.13
2023-02-08T06:17:36.403Z,20.17
2023-02-08T06:20:04.299Z,16.65
2023-02-08T06:22:34.242Z,18.08
2023-02-08T06:25:02.165Z,17.30
2023-02-08T06:27:29.617Z,18.63
2023-02-08T06:29:57.399Z,20.30
2023-02-08T06:32:26.114Z,21.77
2023-02-08T06:34:53.469Z,24.30
2023-02-08T06:37:20.957Z,19.48
2023-02-08T06:39:48.217Z,21.55
2023-02-08T06:42:15.675Z,18.55
2023-02-08T06:44:54.190Z,19.90
2023-02-08T06:47:23.532Z,20.50
2023-02-08T06:49:51.129Z,17.25
2023-02-08T06:52:19.669Z,20.77
2023-02-08T06:54:47.191Z,19.92
2023-02-08T06:57:14.365Z,20.90
2023-02-08T06:59:42.847Z,21.58
2023-02-08T07:02:18.212Z,20.77
2023-02-08T07:04:48.069Z,19.88
2023-02-08T07:07:17.419Z,18.30
2023-02-08T07:09:46.010Z,20.02
2023-02-08T07:12:13.616Z,27.73
2023-02-08T07:14:43.006Z,22.38
2023-02-08T07:17:11.522Z,19.15
2023-02-08T07:19:39.275Z,19.83
2023-02-08T07:22:10.879Z,20.67
2023-02-08T07:24:40.094Z,20.23
2023-02-08T07:27:08.727Z,18.05
2023-02-08T07:29:36.739Z,20.42
2023-02-08T07:32:05.779Z,22.58
2023-02-08T07:34:35.420Z,25.35
2023-02-08T07:37:04.095Z,22.70
2023-02-08T07:39:31.567Z,24.15
2023-02-08T07:41:59.427Z,26.52
2023-02-08T07:44:27.046Z,24.23
2023-02-08T07:46:54.597Z,26.58
2023-02-08T07:49:22.132Z,27.23
2023-02-08T07:51:49.298Z,23.88
2023-02-08T07:54:16.790Z,25.50
2023-02-08T07:56:44.120Z,23.13
2023-02-08T07:59:11.606Z,22.63
2023-02-08T08:01:38.888Z,22.33
2023-02-08T08:04:06.732Z,20.95
2023-02-08T08:06:34.148Z,19.75
2023-02-08T08:09:01.811Z,20.30
2023-02-08T08:11:29.402Z,22.63
2023-02-08T08:13:56.810Z,21.63
2023-02-08T08:16:24.586Z,23.15
2023-02-08T08:18:52.186Z,22.45
2023-02-08T08:21:19.572Z,22.70
2023-02-08T08:23:46.864Z,20.08
2023-02-08T08:26:19.618Z,22.73
2023-02-08T08:28:47.452Z,24.25
2023-02-08T08:31:20.368Z,25.90
2023-02-08T08:33:48.596Z,27.38
2023-02-08T08:36:15.953Z,24.20
2023-02-08T08:38:43.409Z,25.92
2023-02-08T08:41:15.093Z,22.75
2023-02-08T08:43:45.589Z,24.10
2023-02-08T08:46:13.099Z,22.85
2023-02-08T08:48:40.436Z,21.65
2023-02-08T08:51:08.276Z,24.15
2023-02-08T08:53:37.114Z,22.77
2023-02-08T08:56:04.852Z,23.48
2023-02-08T08:58:31.903Z,27.60
2023-02-08T09:01:00.421Z,21.75
2023-02-08T09:03:29.079Z,21.75
2023-02-08T09:05:56.610Z,25.55
2023-02-08T09:08:24.318Z,21.63
2023-02-08T09:10:51.656Z,24.55
2023-02-08T09:13:20.352Z,22.45
2023-02-08T09:15:49.190Z,24.90
2023-02-08T09:18:16.731Z,20.95
2023-02-08T09:20:44.446Z,23.25
2023-02-08T09:23:12.941Z,24.17
2023-02-08T09:25:40.594Z,23.02
2023-02-08T09:28:08.225Z,22.63
2023-02-08T09:30:35.633Z,22.92
2023-02-08T09:33:03.022Z,25.15
2023-02-08T09:35:30.503Z,20.08
2023-02-08T09:37:58.528Z,23.00
2023-02-08T09:40:30.068Z,22.83
2023-02-08T09:43:24.683Z,25.52
2023-02-08T09:46:00.712Z,25.50
2023-02-08T09:48:36.316Z,20.65
2023-02-08T09:51:27.895Z,20.42
2023-02-08T09:54:03.547Z,23.67
2023-02-08T09:56:37.199Z,22.67
2023-02-08T09:59:06.332Z,21.60
2023-02-08T10:01:36.158Z,21.63
2023-02-08T10:04:14.822Z,18.33
2023-02-08T10:06:42.261Z,18.70
2023-02-08T10:09:14.612Z,25.50
2023-02-08T10:12:01.975Z,18.23
2023-02-08T10:14:40.390Z,23.02
2023-02-08T10:17:51.930Z,17.35
2023-02-08T10:20:28.432Z,15.00
2023-02-08T10:23:33.905Z,16.60
2023-02-08T10:28:53.388Z,16.05
2023-02-08T10:31:46.397Z,15.00
2023-02-08T10:34:38.228Z,21.20
2023-02-08T10:37:34.957Z,13.27
2023-02-08T10:40:31.123Z,17.08
2023-02-08T10:43:19.744Z,17.70
2023-02-08T10:46:24.966Z,17.20
2023-02-08T10:49:10.465Z,14.27
2023-02-08T10:51:37.785Z,20.38
2023-02-08T10:54:05.633Z,16.10
2023-02-08T10:56:44.240Z,16.90
2023-02-08T10:59:27.822Z,17.73
2023-02-08T11:01:56.561Z,14.88
2023-02-08T11:04:24.512Z,16.73
2023-02-08T11:06:54.278Z,15.90
2023-02-08T11:09:24.989Z,14.77
2023-02-08T11:11:53.379Z,13.90
2023-02-08T11:14:46.015Z,15.70
2023-02-08T11:17:34.118Z,12.95
2023-02-08T11:20:01.404Z,16.73
2023-02-08T11:22:34.569Z,13.98
2023-02-08T11:25:06.004Z,14.13
2023-02-08T11:27:45.214Z,15.45
2023-02-08T11:30:15.878Z,11.82
2023-02-08T11:32:45.524Z,12.52
2023-02-08T11:35:22.045Z,13.55
2023-02-08T11:37:58.962Z,17.48
2023-02-08T11:40:36.077Z,14.50
2023-02-08T11:43:04.801Z,13.30
2023-02-08T11:45:36.453Z,11.40
2023-02-08T11:48:07.422Z,12.38
2023-02-08T11:50:38.742Z,14.07
2023-02-08T11:53:21.618Z,10.38
2023-02-08T11:56:02.512Z,11.30
2023-02-08T11:58:29.948Z,9.85
2023-02-08T12:01:21.177Z,12.35
2023-02-08T12:03:50.887Z,11.38
2023-02-08T12:07:00.973Z,9.00
2023-02-08T12:09:34.315Z,12.43
2023-02-08T12:12:38.942Z,11.13
2023-02-08T12:15:57.021Z,12.82
2023-02-08T12:18:34.117Z,8.88
2023-02-08T12:21:16.322Z,10.43
2023-02-08T12:24:24.521Z,11.15
2023-02-08T12:27:05.073Z,9.90
2023-02-08T12:29:47.851Z,9.23
2023-02-08T12:32:21.344Z,10.93
2023-02-08T12:35:04.652Z,11.73
2023-02-08T12:38:23.977Z,10.90
2023-02-08T12:41:00.016Z,12.68
2023-02-08T12:43:33.459Z,10.27
2023-02-08T12:46:27.273Z,12.48
2023-02-08T12:49:04.812Z,10.90
2023-02-08T12:51:44.136Z,11.90
2023-02-08T12:54:16.540Z,11.57
2023-02-08T12:56:56.920Z,10.55
2023-02-08T12:59:43.841Z,10.38
2023-02-08T13:02:34.145Z,10.05
2023-02-08T13:05:07.183Z,8.48
2023-02-08T13:07:40.076Z,13.35
2023-02-08T13:10:13.462Z,10.05
2023-02-08T13:12:45.879Z,9.38
2023-02-08T13:15:30.466Z,12.05
2023-02-08T13:18:00.171Z,12.32
2023-02-08T13:20:48.030Z,10.73
2023-02-08T13:23:34.772Z,10.60
2023-02-08T13:26:23.086Z,10.15
2023-02-08T13:28:55.846Z,8.18
2023-02-08T13:31:27.301Z,10.80
2023-02-08T13:34:08.433Z,11.52
2023-02-08T13:36:42.394Z,11.50
2023-02-08T13:39:31.904Z,10.80
2023-02-08T13:42:00.128Z,11.35
2023-02-08T13:44:32.528Z,13.13
2023-02-08T13:47:00.128Z,12.40
2023-02-08T13:49:45.041Z,11.38
2023-02-08T13:52:46.503Z,12.55
2023-02-08T13:55:33.620Z,14.90
2023-02-08T13:58:04.320Z,9.95
2023-02-08T14:00:36.100Z,14.32
2023-02-08T14:03:07.630Z,12.77
2023-02-08T14:05:49.589Z,10.98
2023-02-08T14:08:31.879Z,9.30
2023-02-08T14:11:18.430Z,13.02
2023-02-08T14:13:58.508Z,14.02
2023-02-08T14:16:33.451Z,15.40
2023-02-08T14:19:03.769Z,11.40
2023-02-08T14:21:36.551Z,15.23
2023-02-08T14:24:07.360Z,13.00
2023-02-08T14:26:36.771Z,11.10
2023-02-08T14:29:07.277Z,12.52
2023-02-08T14:31:45.375Z,10.23
2023-02-08T14:34:28.183Z,14.43
2023-02-08T14:37:03.075Z,10.05
2023-02-08T14:42:10.734Z,12.10
2023-02-08T14:44:48.169Z,12.45
2023-02-08T14:47:24.865Z,12.27
2023-02-08T14:50:04.327Z,12.90
2023-02-08T14:52:35.435Z,12.93
2023-02-08T14:55:27.726Z,13.13
2023-02-08T14:58:00.993Z,14.85
2023-02-08T15:00:34.919Z,13.52
2023-02-08T15:03:05.475Z,13.38
2023-02-08T15:05:41.928Z,17.42
2023-02-08T15:08:09.499Z,17.27
2023-02-08T15:10:45.075Z,14.07
2023-02-08T15:13:20.989Z,17.80
2023-02-08T15:15:53.542Z,14.88
2023-02-08T15:18:25.065Z,14.35
2023-02-08T15:21:17.700Z,12.95
2023-02-08T15:23:58.952Z,14.60
2023-02-08T15:26:27.013Z,14.48
2023-02-08T15:28:55.174Z,18.80
2023-02-08T15:31:28.458Z,19.13
2023-02-08T15:33:55.859Z,17.42
2023-02-08T15:36:28.343Z,18.35
2023-02-08T15:38:58.219Z,19.60
2023-02-08T15:41:28.682Z,19.33
2023-02-08T15:44:23.827Z,20.80
2023-02-08T15:46:55.709Z,21.05
2023-02-08T15:49:40.152Z,18.15
2023-02-08T15:52:09.037Z,20.33
2023-02-08T15:54:36.449Z,22.45
2023-02-08T15:57:21.182Z,24.48
2023-02-08T15:59:49.496Z,18.92
2023-02-08T16:02:33.516Z,22.77
2023-02-08T16:05:03.086Z,23.50
2023-02-08T16:07:37.750Z,21.45
2023-02-08T16:10:07.840Z,24.15
2023-02-08T16:12:36.205Z,24.13
2023-02-08T16:15:03.569Z,23.50
2023-02-08T16:17:43.096Z,24.98
2023-02-08T16:20:27.853Z,26.13
2023-02-08T16:23:22.455Z,28.10
2023-02-08T16:25:50.235Z,26.08
2023-02-08T16:28:31.249Z,22.13
2023-02-08T16:31:01.329Z,26.05
2023-02-08T16:33:30.569Z,28.08
2023-02-08T16:36:06.999Z,30.98
2023-02-08T16:38:34.838Z,37.13
2023-02-08T16:41:13.194Z,43.33
2023-02-08T16:43:46.558Z,51.45
2023-02-08T16:46:18.422Z,36.00
2023-02-08T16:48:57.976Z,39.70
2023-02-08T16:51:28.570Z,29.40
2023-02-08T16:54:01.186Z,32.45
2023-02-08T16:56:28.841Z,29.17
2023-02-08T16:58:56.132Z,28.75
2023-02-08T17:01:26.814Z,29.98
2023-02-08T17:03:54.434Z,31.05
2023-02-08T17:06:31.103Z,30.00
2023-02-08T17:09:00.764Z,31.73
2023-02-08T17:11:28.637Z,28.90
2023-02-08T17:13:57.155Z,29.65
2023-02-08T17:16:27.414Z,28.67
2023-02-08T17:18:54.832Z,31.85
2023-02-08T17:21:22.785Z,32.83
2023-02-08T17:23:50.413Z,28.55
2023-02-08T17:26:22.521Z,34.80
2023-02-08T17:28:50.680Z,32.20
2023-02-08T17:31:18.445Z,31.42
2023-02-08T17:33:45.868Z,28.92
2023-02-08T17:36:15.045Z,32.55
2023-02-08T17:38:44.220Z,33.35
2023-02-08T17:41:20.552Z,29.73
2023-02-08T17:43:53.368Z,31.00
2023-02-08T17:46:24.394Z,30.80
2023-02-08T17:48:52.963Z,28.70
2023-02-08T17:51:23.835Z,30.95
2023-02-08T17:53:51.860Z,36.22
2023-02-08T17:56:22.250Z,31.08
2023-02-08T17:58:53.687Z,38.53
2023-02-08T18:01:27.078Z,35.25
2023-02-08T18:03:55.446Z,32.05
2023-02-08T18:06:26.448Z,33.85
2023-02-08T18:08:56.518Z,36.60
2023-02-08T18:11:24.256Z,33.35
2023-02-08T18:13:53.585Z,36.80
2023-02-08T18:16:24.561Z,33.35
2023-02-08T18:18:55.539Z,32.65
2023-02-08T18:21:25.692Z,29.55
2023-02-08T18:23:53.074Z,29.90
2023-02-08T18:26:22.756Z,28.23
2023-02-08T18:28:51.826Z,25.58
2023-02-08T18:31:20.550Z,26.02
2023-02-08T18:33:49.869Z,24.52
2023-02-08T18:36:18.359Z,26.13
2023-02-08T18:38:47.917Z,27.42
2023-02-08T18:41:19.933Z,25.20
2023-02-08T18:43:48.210Z,24.02
2023-02-08T18:46:18.673Z,26.20
2023-02-08T18:48:47.151Z,26.48
2023-02-08T18:51:18.841Z,29.02
2023-02-08T18:53:51.548Z,26.17
2023-02-08T18:56:22.993Z,26.30
2023-02-08T18:58:54.862Z,27.95
2023-02-08T19:01:24.866Z,29.77
2023-02-08T19:03:53.355Z,29.55
2023-02-08T19:06:24.937Z,27.40
2023-02-08T19:08:54.510Z,33.75
2023-02-08T19:11:25.151Z,29.83
2023-02-08T19:13:53.706Z,35.83
2023-02-08T19:16:22.563Z,34.58
2023-02-08T19:18:50.494Z,38.65
2023-02-08T19:21:18.718Z,32.08
2023-02-08T19:23:47.558Z,32.50
2023-02-08T19:26:21.317Z,58.03
2023-02-08T19:28:49.568Z,27.42
2023-02-08T19:31:20.416Z,29.60
2023-02-08T19:33:50.411Z,35.10
2023-02-08T19:36:21.484Z,36.70
2023-02-08T19:38:49.846Z,71.20
2023-02-08T19:41:20.485Z,68.35
2023-02-08T19:43:49.039Z,91.88
2023-02-08T19:46:22.493Z,35.85
2023-02-08T19:48:51.242Z,35.67
2023-02-08T19:51:19.833Z,27.50
2023-02-08T19:53:47.865Z,27.38
2023-02-08T19:56:17.300Z,27.85
2023-02-08T19:58:45.803Z,24.95
2023-02-08T20:01:17.275Z,39.17
2023-02-08T20:03:46.568Z,28.30
2023-02-08T20:06:23.593Z,26.48
2023-02-08T20:08:52.030Z,27.52
2023-02-08T20:11:22.861Z,25.88
2023-02-08T20:13:51.622Z,26.42
2023-02-08T20:16:20.082Z,31.35
2023-02-08T20:18:47.971Z,27.35
2023-02-08T20:21:15.328Z,27.77
2023-02-08T20:23:42.867Z,24.15
2023-02-08T20:26:16.817Z,22.80
2023-02-08T20:28:47.658Z,29.90
2023-02-08T20:31:18.726Z,30.02
2023-02-08T20:33:46.657Z,29.75
2023-02-08T20:36:24.114Z,28.65
2023-02-08T20:38:53.616Z,28.63
2023-02-08T20:41:22.416Z,30.33
2023-02-08T20:43:50.196Z,27.77
2023-02-08T20:46:23.496Z,28.45
2023-02-08T20:48:51.919Z,28.27
2023-02-08T20:51:22.189Z,29.60
2023-02-08T20:53:50.265Z,29.08
2023-02-08T20:56:20.726Z,28.27
2023-02-08T20:58:48.805Z,28.77
2023-02-08T21:01:19.634Z,27.00
2023-02-08T21:03:46.964Z,26.95
2023-02-08T21:06:29.516Z,26.23
2023-02-08T21:08:58.309Z,26.92
2023-02-08T21:11:28.980Z,29.15
2023-02-08T21:13:57.104Z,29.90
2023-02-08T21:16:24.686Z,27.52
2023-02-08T21:18:52.334Z,27.83
2023-02-08T21:21:20.579Z,30.17
2023-02-08T21:23:47.984Z,34.83
2023-02-08T21:26:20.702Z,37.83
2023-02-08T21:28:48.439Z,34.92
2023-02-08T21:31:20.092Z,33.60
2023-02-08T21:33:47.945Z,31.58
2023-02-08T21:36:17.944Z,32.30
2023-02-08T21:38:46.160Z,33.65
2023-02-08T21:41:25.252Z,31.90
2023-02-08T21:43:56.590Z,32.22
2023-02-08T21:46:28.425Z,33.35
2023-02-08T21:49:16.252Z,31.27
2023-02-08T21:52:02.952Z,33.97
2023-02-08T21:54:42.912Z,31.05
2023-02-08T21:57:19.250Z,35.78
2023-02-08T21:59:48.771Z,35.08
2023-02-08T22:02:23.405Z,40.83
2023-02-08T22:05:21.749Z,33.05
2023-02-08T22:07:57.506Z,32.30
2023-02-08T22:10:27.792Z,33.13
2023-02-08T22:12:55.373Z,35.17
2023-02-08T22:15:25.969Z,34.22
2023-02-08T22:17:57.743Z,36.95
2023-02-08T22:20:26.465Z,35.67
2023-02-08T22:22:55.369Z,36.28
2023-02-08T22:25:23.974Z,39.08
2023-02-08T22:27:52.021Z,38.75
2023-02-08T22:30:19.629Z,41.25
2023-02-08T22:32:48.344Z,40.72
2023-02-08T22:35:17.033Z,34.20
2023-02-08T22:37:44.875Z,32.70
2023-02-08T22:40:13.009Z,34.20
2023-02-08T22:42:41.622Z,32.60
2023-02-08T22:45:09.729Z,33.78
2023-02-08T22:47:37.272Z,33.30
2023-02-08T22:50:06.244Z,31.40
2023-02-08T22:52:34.641Z,31.45
2023-02-08T22:55:05.036Z,32.67
2023-02-08T22:57:34.591Z,32.53
2023-02-08T23:00:02.839Z,31.27
2023-02-08T23:02:30.551Z,31.77
2023-02-08T23:04:58.111Z,32.50
2023-02-08T23:07:25.509Z,34.45
2023-02-08T23:09:52.915Z,31.08
2023-02-08T23:12:20.245Z,29.17
2023-02-08T23:14:49.466Z,30.17
2023-02-08T23:17:17.114Z,31.58
2023-02-08T23:19:44.566Z,32.53
2023-02-08T23:22:11.988Z,30.83
2023-02-08T23:24:39.683Z,31.67
2023-02-08T23:27:07.694Z,31.90
2023-02-08T23:29:35.140Z,34.35
2023-02-08T23:32:02.740Z,30.83
2023-02-08T23:34:30.086Z,31.92
2023-02-08T23:36:57.433Z,32.97
2023-02-08T23:39:24.867Z,39.85
2023-02-08T23:41:54.713Z,36.97
2023-02-08T23:44:22.088Z,39.63
2023-02-08T23:46:49.498Z,35.80
2023-02-08T23:49:17.199Z,38.25
2023-02-08T23:51:44.507Z,36.50
2023-02-08T23:54:11.933Z,36.55
2023-02-08T23:56:39.201Z,35.67
2023-02-08T23:59:08.355Z,36.97
